Time;durP1;ratioP1;P1;durP2;ratioP2;P2;SDS_P1;SDS_P2;PMS_P1;PMS_P2;Temp;Humidity;BMP_temperature;BMP_pressure;BME280_temperature;BME280_humidity;BME280_pressure;Samples;Min_cycle;Max_cycle;Signal;HPM_P1;HPM_P2
2023/10/15 00:01:37;;;;;;;8.30;3.25;;;;;;;9.15;100.00;99299.00;5072895;28;20043;-88
2023/10/15 00:04:03;;;;;;;6.88;3.70;;;;;;;9.23;100.00;99312.47;5055927;28;20032;-87
2023/10/15 00:06:30;;;;;;;10.98;3.72;;;;;;;9.11;100.00;99274.91;5072891;28;20438;-87
2023/10/15 00:08:55;;;;;;;9.85;3.53;;;;;;;9.35;100.00;99316.22;5072682;28;20125;-87
2023/10/15 00:11:21;;;;;;;8.30;3.40;;;;;;;9.47;100.00;99321.69;5055538;28;20136;-88
2023/10/15 00:13:47;;;;;;;7.82;3.13;;;;;;;9.54;100.00;99316.22;5056074;28;20024;-88
2023/10/15 00:16:19;;;;;;;9.38;3.22;;;;;;;9.58;100.00;99334.19;5055769;28;20040;-87
2023/10/15 00:18:45;;;;;;;8.43;3.20;;;;;;;9.58;100.00;99318.59;5055949;28;20422;-87
2023/10/15 00:21:13;;;;;;;8.10;3.25;;;;;;;9.61;100.00;99325.41;5055538;28;20159;-88
2023/10/15 00:23:40;;;;;;;6.35;2.58;;;;;;;9.63;100.00;99318.38;5055867;28;20044;-88
2023/10/15 00:26:15;;;;;;;7.00;2.63;;;;;;;9.68;100.00;99316.38;5055526;28;20399;-88
2023/10/15 00:28:44;;;;;;;6.05;3.17;;;;;;;9.66;100.00;99321.69;5055820;28;20024;-88
2023/10/15 00:31:13;;;;;;;7.55;2.85;;;;;;;9.74;100.00;99316.09;5055771;28;20459;-87
2023/10/15 00:33:46;;;;;;;6.60;2.50;;;;;;;9.61;100.00;99292.47;5075418;28;20036;-87
2023/10/15 00:36:14;;;;;;;7.15;2.47;;;;;;;9.66;100.00;99300.88;5076356;28;20020;-87
2023/10/15 00:38:43;;;;;;;7.72;2.50;;;;;;;9.85;100.00;99321.63;5076856;28;20024;-87
2023/10/15 00:41:10;;;;;;;5.53;2.33;;;;;;;9.86;100.00;99322.44;5076389;28;20071;-87
2023/10/15 00:43:35;;;;;;;6.43;2.30;;;;;;;9.78;99.95;99307.25;5076693;28;20066;-87
2023/10/15 00:46:03;;;;;;;8.88;2.28;;;;;;;9.88;99.89;99325.84;5076422;28;20114;-88
2023/10/15 00:48:35;;;;;;;6.50;2.35;;;;;;;9.82;99.78;99324.38;5076644;28;20438;-87
2023/10/15 00:51:17;;;;;;;9.65;3.17;;;;;;;9.78;99.68;99316.81;5076319;28;20020;-87
2023/10/15 00:53:53;;;;;;;6.90;2.30;;;;;;;9.86;99.84;99331.13;5094764;28;20027;-87
2023/10/15 00:56:24;;;;;;;3.90;2.25;;;;;;;9.65;99.46;99301.78;5076370;28;20016;-88
2023/10/15 01:03:48;;;;;;;5.38;2.42;;;;;;;9.55;99.64;99325.69;5094646;28;20081;-88
2023/10/15 01:06:29;;;;;;;9.10;2.92;;;;;;;9.52;99.55;99326.66;5076134;28;20020;-87
2023/10/15 01:08:59;;;;;;;6.07;2.50;;;;;;;9.44;99.60;99329.66;5076175;28;20020;-87
2023/10/15 01:11:30;;;;;;;8.43;2.80;;;;;;;9.40;99.64;99328.13;5076013;28;20043;-86
2023/10/15 01:13:56;;;;;;;6.68;2.28;;;;;;;9.32;99.81;99325.03;5075908;28;20074;-87
2023/10/15 01:16:22;;;;;;;6.60;1.92;;;;;;;9.12;99.69;99294.75;5076079;28;20487;-87
2023/10/15 01:18:55;;;;;;;10.30;2.30;;;;;;;9.19;99.78;99331.72;5076048;28;20020;-87
2023/10/15 01:21:26;;;;;;;8.93;2.35;;;;;;;9.18;99.71;99333.44;5076032;28;20595;-87
2023/10/15 01:24:04;;;;;;;11.07;2.38;;;;;;;9.16;99.68;99339.63;5075795;28;20031;-87
2023/10/15 01:26:34;;;;;;;5.32;1.80;;;;;;;8.98;99.76;99308.41;5094064;28;20383;-88
2023/10/15 01:29:00;;;;;;;7.47;2.08;;;;;;;9.01;100.00;99320.38;5093777;28;20024;-87
2023/10/15 01:31:25;;;;;;;7.65;1.77;;;;;;;9.04;99.76;99325.44;5075599;28;20026;-87
2023/10/15 01:33:52;;;;;;;5.10;1.90;;;;;;;9.02;99.65;99337.69;5075773;28;20031;-88
2023/10/15 01:36:19;;;;;;;5.70;2.05;;;;;;;8.94;100.00;99327.63;5075722;28;20041;-87
2023/10/15 01:38:45;;;;;;;9.88;2.25;;;;;;;8.99;99.86;99341.25;5075802;28;20371;-87
2023/10/15 01:41:19;;;;;;;7.03;2.10;;;;;;;8.95;99.96;99346.66;5075181;28;20020;-87
2023/10/15 01:43:48;;;;;;;3.95;1.70;;;;;;;8.85;99.90;99329.78;5093776;28;20505;-87
2023/10/15 01:46:23;;;;;;;6.90;2.33;;;;;;;8.86;100.00;99350.50;5075014;28;20453;-87
2023/10/15 01:48:49;;;;;;;4.55;2.22;;;;;;;8.62;100.00;99310.88;5075515;28;20133;-87
2023/10/15 01:51:16;;;;;;;4.93;2.25;;;;;;;8.79;100.00;99345.63;5075253;28;20053;-87
2023/10/15 01:53:44;;;;;;;5.00;2.40;;;;;;;8.66;100.00;99321.97;5075311;28;20020;-87
2023/10/15 01:56:17;;;;;;;4.32;2.17;;;;;;;8.75;100.00;99350.97;5074714;28;20077;-87
2023/10/15 01:58:44;;;;;;;8.32;2.15;;;;;;;8.75;99.95;99343.16;5074806;28;20020;-88
2023/10/15 02:01:20;;;;;;;6.93;2.45;;;;;;;8.65;99.78;99338.47;5074852;28;20024;-87
2023/10/15 02:03:45;;;;;;;5.15;1.70;;;;;;;8.50;100.00;99306.22;5075271;28;20035;-87
2023/10/15 02:06:11;;;;;;;6.00;1.77;;;;;;;8.58;100.00;99324.06;5074849;28;20020;-87
2023/10/15 02:08:39;;;;;;;6.47;1.85;;;;;;;8.46;100.00;99309.84;5075080;28;20020;-87
2023/10/15 02:11:10;;;;;;;3.40;1.55;;;;;;;8.47;100.00;99324.53;5074630;28;20394;-87
2023/10/15 02:13:40;;;;;;;6.07;1.92;;;;;;;8.61;100.00;99344.69;5093032;28;20388;-87
2023/10/15 02:16:09;;;;;;;10.80;1.73;;;;;;;8.59;100.00;99349.09;5074215;28;20031;-87
2023/10/15 02:18:35;;;;;;;5.45;1.90;;;;;;;8.24;100.00;99297.78;5074931;28;20027;-87
2023/10/15 02:21:01;;;;;;;4.88;1.65;;;;;;;8.60;100.00;99356.00;5074673;28;20035;-87
2023/10/15 02:23:27;;;;;;;5.35;1.80;;;;;;;8.58;100.00;99348.25;5074871;28;20035;-87
2023/10/15 02:25:58;;;;;;;5.30;2.03;;;;;;;8.38;100.00;99314.53;5074557;28;20119;-87
2023/10/15 02:28:26;;;;;;;;;;;;;;;8.48;100.00;99344.38;5075208;28;20024;-87
2023/10/15 02:33:30;;;;;;;4.15;1.52;;;;;;;8.35;100.00;99325.88;5092775;28;20082;-87
2023/10/15 02:35:59;;;;;;;5.97;2.08;;;;;;;8.45;100.00;99350.53;5074194;28;20020;-88
2023/10/15 02:38:36;;;;;;;5.18;2.08;;;;;;;8.43;100.00;99354.97;5074502;28;20498;-87
2023/10/15 02:43:28;;;;;;;10.15;1.73;;;;;;;8.30;100.00;99334.72;5092666;28;20028;-88
2023/10/15 02:45:53;;;;;;;7.25;1.92;;;;;;;8.30;100.00;99345.13;5074383;28;20432;-87
2023/10/15 02:48:22;;;;;;;6.35;2.00;;;;;;;8.26;100.00;99339.25;5074116;28;20016;-87
2023/10/15 02:53:34;;;;;;;8.88;1.92;;;;;;;8.25;100.00;99342.72;5092507;28;20021;-87
2023/10/15 02:56:00;;;;;;;5.20;1.73;;;;;;;8.23;100.00;99337.59;5074017;28;20572;-87
2023/10/15 02:58:28;;;;;;;4.80;1.80;;;;;;;8.16;100.00;99330.97;5074265;28;20062;-87
2023/10/15 03:00:59;;;;;;;5.97;1.75;;;;;;;8.19;100.00;99343.00;5074084;28;20016;-88
2023/10/15 03:03:33;;;;;;;5.20;2.15;;;;;;;8.17;100.00;99356.00;5074151;28;20073;-87
2023/10/15 03:05:59;;;;;;;7.65;1.77;;;;;;;8.05;100.00;99340.97;5074208;28;20383;-87
2023/10/15 03:08:31;;;;;;;6.60;1.95;;;;;;;8.10;100.00;99351.16;5074036;28;20031;-88
2023/10/15 03:11:11;;;;;;;6.25;1.83;;;;;;;8.10;100.00;99356.34;5073093;28;20044;-87
2023/10/15 03:13:55;;;;;;;5.77;1.87;;;;;;;8.07;100.00;99354.72;5074110;28;20062;-88
2023/10/15 03:16:24;;;;;;;5.93;2.13;;;;;;;7.93;100.00;99337.13;5073744;28;20024;-87
2023/10/15 03:18:50;;;;;;;3.67;1.33;;;;;;;8.02;100.00;99361.00;5049373;28;20683;-87
2023/10/15 03:21:26;;;;;;;6.78;1.92;;;;;;;7.98;100.00;99366.31;5032563;28;20060;-87
2023/10/15 03:23:56;;;;;;;5.93;2.20;;;;;;;7.96;100.00;99364.66;5049329;28;20068;-87
2023/10/15 03:26:35;;;;;;;6.40;1.95;;;;;;;7.92;100.00;99370.88;5049166;28;20029;-87
2023/10/15 03:29:13;;;;;;;4.68;1.98;;;;;;;7.86;100.00;99368.53;5032470;28;20044;-88
2023/10/15 03:31:44;;;;;;;4.13;1.60;;;;;;;7.87;100.00;99381.44;5032676;28;20056;-87
2023/10/15 03:39:15;;;;;;;4.95;1.83;;;;;;;7.83;100.00;99373.84;5049159;28;20079;-87
2023/10/15 03:41:41;;;;;;;;;;;;;;;7.78;100.00;99374.03;5032954;28;20040;-88
2023/10/15 03:44:10;;;;;;;4.50;1.95;;;;;;;7.79;100.00;99378.31;5032141;28;19908;-88
2023/10/15 03:46:36;;;;;;;5.78;2.33;;;;;;;7.70;100.00;99368.31;5032392;28;20469;-87
2023/10/15 03:49:07;;;;;;;5.82;1.88;;;;;;;7.76;100.00;99373.25;5039553;28;20036;-87
2023/10/15 03:51:33;;;;;;;2.40;1.55;;;;;;;7.71;100.00;99360.47;5073613;28;20016;-87
2023/10/15 03:54:06;;;;;;;5.57;2.17;;;;;;;7.75;100.00;99371.53;5073674;28;20039;-87
2023/10/15 03:56:34;;;;;;;5.97;1.95;;;;;;;7.66;100.00;99359.78;5073504;28;20021;-88
2023/10/15 03:59:00;;;;;;;12.40;2.65;;;;;;;7.68;100.00;99370.13;5073474;28;20081;-87
2023/10/15 04:01:27;;;;;;;7.45;2.17;;;;;;;7.64;100.00;99366.81;5073195;28;20027;-87
2023/10/15 04:03:53;;;;;;;3.58;1.45;;;;;;;7.63;100.00;99366.88;5091554;28;20028;-87
2023/10/15 04:06:20;;;;;;;3.75;1.60;;;;;;;7.58;100.00;99354.06;5073167;28;20157;-87
2023/10/15 04:11:31;;;;;;;3.67;1.77;;;;;;;7.54;100.00;99346.47;5091485;28;20075;-87
2023/10/15 04:14:08;;;;;;;9.05;2.80;;;;;;;7.57;100.00;99351.53;5073415;28;20067;-87
2023/10/15 04:16:34;;;;;;;9.63;2.22;;;;;;;7.50;100.00;99345.78;5073374;28;20035;-87
2023/10/15 04:19:00;;;;;;;7.57;1.95;;;;;;;7.30;100.00;99320.63;5073306;28;20032;-88
2023/10/15 04:21:26;;;;;;;12.52;2.03;;;;;;;7.39;100.00;99330.63;5073436;28;20623;-87
2023/10/15 04:23:52;;;;;;;9.23;2.00;;;;;;;7.46;100.00;99346.78;5077232;28;20028;-87
2023/10/15 04:26:22;;;;;;;9.57;2.85;;;;;;;7.47;100.00;99338.94;5076831;28;20019;-87
2023/10/15 04:28:51;;;;;;;8.32;2.45;;;;;;;7.36;100.00;99338.50;5095223;28;20031;-87
2023/10/15 04:31:22;;;;;;;10.63;2.58;;;;;;;7.22;100.00;99317.47;5076720;28;20032;-88
2023/10/15 04:33:51;;;;;;;5.95;2.35;;;;;;;7.40;100.00;99345.25;5077093;28;20085;-87
2023/10/15 04:36:17;;;;;;;8.07;2.35;;;;;;;7.35;100.00;99344.59;5051957;28;20395;-88
2023/10/15 04:38:42;;;;;;;8.35;1.50;;;;;;;7.25;100.00;99325.16;5012505;28;20390;-87
2023/10/15 04:41:10;;;;;;;8.75;2.45;;;;;;;7.33;100.00;99345.56;4995840;28;20045;-87
2023/10/15 04:43:45;;;;;;;5.10;2.10;;;;;;;7.32;100.00;99346.47;4996188;28;20103;-88
2023/10/15 04:46:17;;;;;;;7.40;1.90;;;;;;;7.22;100.00;99336.47;4995953;28;20116;-87
2023/10/15 04:48:46;;;;;;;8.68;2.50;;;;;;;7.33;100.00;99348.16;4996037;28;20045;-87
2023/10/15 04:51:14;;;;;;;8.75;2.33;;;;;;;7.31;100.00;99348.22;5012135;28;20508;-88
2023/10/15 04:53:50;;;;;;;6.90;2.13;;;;;;;7.20;100.00;99340.00;4996161;28;20085;-87
2023/10/15 04:56:16;;;;;;;8.25;2.15;;;;;;;7.27;100.00;99349.22;4995921;28;20041;-88
2023/10/15 04:58:41;;;;;;;8.02;2.58;;;;;;;7.16;100.00;99335.84;4996234;28;20444;-87
2023/10/15 05:01:08;;;;;;;5.97;2.00;;;;;;;7.14;100.00;99335.06;4995692;28;20631;-88
2023/10/15 05:03:36;;;;;;;7.32;2.55;;;;;;;7.25;100.00;99362.25;4995937;28;20120;-88
2023/10/15 05:06:10;;;;;;;8.07;2.50;;;;;;;7.15;100.00;99344.50;4995703;28;20037;-87
2023/10/15 05:08:36;;;;;;;10.45;2.17;;;;;;;7.22;100.00;99361.53;4995767;28;20041;-88
2023/10/15 05:11:03;;;;;;;9.07;2.08;;;;;;;7.20;100.00;99350.34;4995533;28;20054;-87
2023/10/15 05:13:31;;;;;;;11.18;2.50;;;;;;;7.19;100.00;99351.25;5011329;28;20551;-88
2023/10/15 05:15:57;;;;;;;11.27;2.35;;;;;;;7.21;100.00;99352.06;5052099;28;20040;-88
2023/10/15 05:18:22;;;;;;;5.43;1.85;;;;;;;7.03;100.00;99337.19;5075668;28;20529;-87
2023/10/15 05:20:49;;;;;;;4.68;1.67;;;;;;;7.17;100.00;99361.69;5076095;28;20115;-87
2023/10/15 05:23:16;;;;;;;6.28;2.88;;;;;;;7.13;100.00;99360.13;5094071;28;20056;-87
2023/10/15 05:25:42;;;;;;;8.27;2.22;;;;;;;7.19;100.00;99372.00;5076079;28;20024;-87
2023/10/15 05:28:08;;;;;;;9.90;2.10;;;;;;;7.12;100.00;99361.03;5075947;28;20034;-88
2023/10/15 05:30:34;;;;;;;7.55;2.20;;;;;;;7.17;100.00;99363.44;5075817;28;20024;-88
2023/10/15 05:33:02;;;;;;;4.57;1.80;;;;;;;7.23;100.00;99384.75;5075483;28;20032;-88
2023/10/15 05:35:28;;;;;;;11.40;2.45;;;;;;;7.25;100.00;99370.03;5075131;28;20049;-88
2023/10/15 05:37:54;;;;;;;9.43;2.38;;;;;;;7.28;100.00;99376.81;5031182;28;20033;-88
2023/10/15 05:40:21;;;;;;;6.22;2.65;;;;;;;7.21;100.00;99358.09;5014474;28;20195;-88
2023/10/15 05:42:47;;;;;;;5.72;2.08;;;;;;;7.28;100.00;99369.03;5014732;28;20040;-88
2023/10/15 05:45:14;;;;;;;9.48;2.75;;;;;;;7.34;100.00;99375.75;5014458;28;20428;-88
2023/10/15 05:47:42;;;;;;;6.60;2.15;;;;;;;7.41;100.00;99382.38;5014537;28;20076;-89
2023/10/15 05:50:09;;;;;;;8.07;2.80;;;;;;;7.44;100.00;99388.28;5014418;28;20018;-88
2023/10/15 05:52:34;;;;;;;4.68;1.90;;;;;;;7.53;100.00;99389.69;5030902;28;20068;-88
2023/10/15 05:55:00;;;;;;;12.02;2.55;;;;;;;7.56;100.00;99375.78;5014345;28;20030;-88
2023/10/15 05:57:26;;;;;;;8.57;2.25;;;;;;;7.73;100.00;99392.34;5014167;28;20037;-87
2023/10/15 05:59:54;;;;;;;8.45;2.30;;;;;;;7.86;100.00;99399.66;5014336;28;20099;-88
2023/10/15 06:02:20;;;;;;;12.40;2.28;;;;;;;7.95;100.00;99394.09;5014264;28;20056;-88
2023/10/15 06:04:46;;;;;;;8.85;2.50;;;;;;;8.13;100.00;99395.09;5014403;28;20057;-88
2023/10/15 06:07:15;;;;;;;7.65;2.17;;;;;;;8.28;100.00;99389.28;5014229;28;20490;-88
2023/10/15 06:09:41;;;;;;;12.25;2.95;;;;;;;8.41;100.00;99392.25;5064825;28;20436;-88
2023/10/15 06:12:06;;;;;;;11.02;2.30;;;;;;;8.62;100.00;99393.09;5075044;28;20145;-88
2023/10/15 06:14:32;;;;;;;6.30;2.35;;;;;;;8.85;100.00;99395.56;5074999;28;20054;-88
2023/10/15 06:16:58;;;;;;;9.18;2.35;;;;;;;9.34;98.32;99385.56;5075038;28;20020;-88
2023/10/15 06:19:29;;;;;;;6.88;2.08;;;;;;;9.83;96.15;99405.84;5074707;28;20027;-88
2023/10/15 06:21:55;;;;;;;5.30;2.35;;;;;;;9.73;95.17;99371.63;5075089;28;20069;-88
2023/10/15 06:24:20;;;;;;;7.25;2.45;;;;;;;10.26;93.97;99403.81;5074830;28;20020;-87
2023/10/15 06:26:46;;;;;;;8.40;2.20;;;;;;;10.85;91.43;99406.00;5093072;28;20464;-88
2023/10/15 06:29:13;;;;;;;10.13;2.70;;;;;;;10.66;89.88;99372.25;5074414;28;20027;-88
2023/10/15 06:31:39;;;;;;;8.40;2.80;;;;;;;10.74;89.75;99396.16;5074647;28;20548;-88
2023/10/15 06:34:06;;;;;;;8.63;2.60;;;;;;;10.79;89.85;99410.66;5074969;28;20024;-88
2023/10/15 06:36:32;;;;;;;8.05;2.35;;;;;;;10.76;89.50;99406.47;5074309;28;20550;-87
2023/10/15 06:38:57;;;;;;;5.43;1.90;;;;;;;11.03;88.86;99419.00;5070192;28;20155;-87
2023/10/15 06:41:24;;;;;;;6.85;2.42;;;;;;;11.29;87.95;99421.06;5053081;28;20491;-87
2023/10/15 06:43:50;;;;;;;6.25;2.50;;;;;;;11.41;87.41;99422.19;5053002;28;20043;-88
2023/10/15 06:46:16;;;;;;;6.40;2.10;;;;;;;11.49;86.76;99417.41;5052859;28;20036;-88
2023/10/15 06:48:41;;;;;;;7.45;2.83;;;;;;;11.69;85.89;99422.38;5053141;28;20032;-87
2023/10/15 06:51:07;;;;;;;8.82;2.70;;;;;;;11.91;85.30;99411.63;5053205;28;20111;-88
2023/10/15 06:53:33;;;;;;;7.85;2.47;;;;;;;12.26;83.47;99423.59;5052868;28;20040;-87
2023/10/15 06:55:58;;;;;;;7.13;2.42;;;;;;;12.34;83.40;99430.06;5029717;28;20456;-88
2023/10/15 06:58:25;;;;;;;7.93;2.20;;;;;;;12.24;82.91;99414.09;5029459;28;20048;-88
2023/10/15 07:00:54;;;;;;;9.35;3.05;;;;;;;12.57;82.25;99428.75;5029830;28;20131;-87
2023/10/15 07:03:20;;;;;;;9.65;2.20;;;;;;;12.49;81.62;99397.03;5013081;28;20021;-88
2023/10/15 07:05:45;;;;;;;6.22;1.95;;;;;;;12.67;81.19;99410.75;5029665;28;20048;-88
2023/10/15 07:08:11;;;;;;;6.95;3.10;;;;;;;12.77;80.49;99435.44;5029747;28;20102;-88
2023/10/15 07:10:37;;;;;;;8.35;2.65;;;;;;;12.65;80.22;99428.31;5027892;28;20092;-88
2023/10/15 07:13:03;;;;;;;7.97;2.53;;;;;;;12.72;80.38;99430.50;5032937;28;20128;-87
2023/10/15 07:15:29;;;;;;;7.15;2.13;;;;;;;12.83;80.20;99416.78;5032605;28;20033;-87
2023/10/15 07:17:55;;;;;;;9.98;2.58;;;;;;;12.91;79.68;99421.53;5032860;28;20104;-87
2023/10/15 07:20:29;;;;;;;4.75;1.90;;;;;;;12.79;78.95;99390.91;5032491;28;20124;-88
2023/10/15 07:22:56;;;;;;;9.32;2.88;;;;;;;13.13;78.46;99419.31;5032841;28;20024;-88
2023/10/15 07:25:24;;;;;;;5.80;2.22;;;;;;;13.20;78.04;99422.41;5032548;28;20065;-88
2023/10/15 07:27:50;;;;;;;13.15;2.55;;;;;;;13.29;77.87;99427.09;5067977;28;20024;-88
2023/10/15 07:30:19;;;;;;;8.65;2.67;;;;;;;13.17;76.78;99422.59;5073536;28;20024;-87
2023/10/15 07:32:45;;;;;;;13.98;2.92;;;;;;;13.27;76.76;99417.66;5073734;28;20055;-87
2023/10/15 07:35:13;;;;;;;7.15;2.38;;;;;;;13.15;76.17;99422.69;5073840;28;20464;-87
2023/10/15 07:37:44;;;;;;;7.07;2.08;;;;;;;13.03;76.19;99419.97;5073369;28;20368;-87
2023/10/15 07:40:18;;;;;;;8.63;2.72;;;;;;;13.12;76.39;99427.25;5073647;28;20063;-88
2023/10/15 07:42:48;;;;;;;5.47;2.55;;;;;;;13.15;76.46;99416.63;5073714;28;20386;-88
2023/10/15 07:45:14;;;;;;;11.10;2.75;;;;;;;12.93;75.58;99407.44;5088413;28;20038;-88
2023/10/15 07:47:40;;;;;;;5.70;2.17;;;;;;;12.92;76.23;99410.16;5093480;28;20023;-88
2023/10/15 07:50:18;;;;;;;9.98;2.92;;;;;;;13.00;76.33;99431.44;5093722;28;20382;-88
2023/10/15 07:52:44;;;;;;;7.00;2.30;;;;;;;13.05;76.45;99433.78;5093820;28;20077;-88
2023/10/15 07:55:13;;;;;;;7.47;2.58;;;;;;;12.92;75.13;99408.38;5093820;28;20019;-88
2023/10/15 07:57:39;;;;;;;10.60;2.85;;;;;;;12.94;75.47;99423.97;5095726;28;20023;-87
2023/10/15 08:00:06;;;;;;;11.32;2.70;;;;;;;12.95;75.40;99434.34;5097922;28;20383;-87
2023/10/15 08:02:32;;;;;;;10.05;2.53;;;;;;;12.84;75.54;99412.38;5097666;28;20539;-88
2023/10/15 08:04:57;;;;;;;8.80;2.67;;;;;;;12.75;75.84;99416.38;5097771;28;20020;-87
2023/10/15 08:07:23;;;;;;;7.10;2.67;;;;;;;12.93;76.31;99441.41;5087617;28;20020;-86
2023/10/15 08:09:51;;;;;;;7.68;2.70;;;;;;;12.83;76.14;99424.59;5077382;28;20028;-87
2023/10/15 08:12:17;;;;;;;8.32;2.55;;;;;;;12.50;75.24;99388.25;5076685;28;20131;-87
2023/10/15 08:14:43;;;;;;;4.32;2.15;;;;;;;12.77;75.00;99442.41;5101131;28;20103;-86
2023/10/15 08:17:11;;;;;;;10.13;3.22;;;;;;;12.79;75.21;99432.72;5087765;28;20058;-87
2023/10/15 08:19:37;;;;;;;9.82;2.72;;;;;;;12.81;75.12;99428.22;5096841;28;20473;-86
2023/10/15 08:22:02;;;;;;;10.25;3.15;;;;;;;12.77;75.45;99422.38;5097383;28;20035;-87
2023/10/15 08:24:28;;;;;;;12.27;3.28;;;;;;;12.85;73.77;99443.66;5096413;28;20432;-87
2023/10/15 08:26:54;;;;;;;7.30;2.20;;;;;;;12.89;74.55;99441.69;5096853;28;20060;-87
2023/10/15 08:29:20;;;;;;;6.25;2.10;;;;;;;13.02;74.14;99442.66;5086815;28;20382;-87
2023/10/15 08:31:46;;;;;;;8.75;2.60;;;;;;;13.06;74.43;99433.72;5091023;28;20058;-88
2023/10/15 08:34:12;;;;;;;7.68;2.60;;;;;;;13.12;74.50;99456.84;5096984;28;20019;-86
2023/10/15 08:36:38;;;;;;;11.02;3.13;;;;;;;12.94;72.98;99442.28;5097009;28;20366;-87
2023/10/15 08:39:06;;;;;;;6.78;2.30;;;;;;;12.73;73.33;99437.38;5115500;28;20026;-88
2023/10/15 08:41:38;;;;;;;8.90;2.58;;;;;;;12.74;73.65;99433.84;5096533;28;20020;-87
2023/10/15 08:44:06;;;;;;;8.40;2.63;;;;;;;12.74;72.94;99443.44;5096863;28;20047;-87
2023/10/15 08:46:32;;;;;;;5.25;2.05;;;;;;;12.81;73.96;99444.78;5096624;28;20065;-87
2023/10/15 08:49:00;;;;;;;4.60;2.20;;;;;;;12.80;73.44;99447.47;5084361;28;20041;-87
2023/10/15 08:51:26;;;;;;;7.88;2.20;;;;;;;12.75;73.38;99452.97;5095287;28;20054;-86
2023/10/15 08:53:53;;;;;;;5.20;2.03;;;;;;;12.79;73.51;99453.63;5076685;28;20467;-86
2023/10/15 08:56:22;;;;;;;10.27;2.15;;;;;;;12.81;73.73;99454.38;5076540;28;20508;-88
2023/10/15 08:58:56;;;;;;;8.23;2.60;;;;;;;12.65;73.70;99446.59;5076514;28;20364;-86
2023/10/15 09:01:23;;;;;;;4.68;2.10;;;;;;;12.55;73.88;99450.66;5094253;28;20533;-85
2023/10/15 09:03:48;;;;;;;8.63;2.72;;;;;;;12.21;73.98;99397.75;5094658;28;20021;-86
2023/10/15 09:06:15;;;;;;;11.38;2.95;;;;;;;12.50;74.05;99456.16;5076307;28;20504;-85
2023/10/15 09:08:43;;;;;;;7.57;2.20;;;;;;;12.34;74.32;99437.91;5074736;28;20039;-87
2023/10/15 09:11:10;;;;;;;6.22;2.28;;;;;;;12.42;73.79;99460.97;5076537;28;20047;-87
2023/10/15 09:13:37;;;;;;;6.38;2.05;;;;;;;12.32;73.29;99452.84;5076796;28;20039;-87
2023/10/15 09:16:07;;;;;;;8.63;2.67;;;;;;;12.21;73.21;99437.75;5077351;28;20031;-87
2023/10/15 09:18:36;;;;;;;11.60;2.50;;;;;;;11.94;73.16;99440.16;5077365;28;20051;-87
2023/10/15 09:21:03;;;;;;;10.20;2.63;;;;;;;11.78;73.32;99441.91;5077190;28;20057;-87
2023/10/15 09:23:35;;;;;;;5.20;2.00;;;;;;;11.77;73.76;99448.06;5076725;28;20031;-86
2023/10/15 09:26:01;;;;;;;8.07;2.50;;;;;;;11.46;74.16;99438.41;5077150;28;20167;-86
2023/10/15 09:28:30;;;;;;;6.95;2.10;;;;;;;11.48;74.82;99450.47;5076458;28;20503;-86
2023/10/15 09:31:09;;;;;;;8.20;2.67;;;;;;;11.57;74.96;99453.50;5094127;28;20086;-86
2023/10/15 09:33:35;;;;;;;7.50;2.13;;;;;;;11.56;75.08;99441.41;5075355;28;20028;-87
2023/10/15 09:36:04;;;;;;;6.43;2.40;;;;;;;11.57;75.01;99449.13;5075250;28;20031;-87
2023/10/15 09:38:31;;;;;;;6.05;2.20;;;;;;;11.37;74.94;99449.34;5075026;28;20085;-87
2023/10/15 09:40:58;;;;;;;7.22;2.35;;;;;;;11.29;75.49;99447.13;5075938;28;20390;-87
2023/10/15 09:43:25;;;;;;;8.05;2.58;;;;;;;11.28;75.33;99448.06;5075393;28;20115;-87
2023/10/15 09:45:54;;;;;;;5.55;2.10;;;;;;;11.19;74.17;99451.16;5075570;28;20031;-87
2023/10/15 09:48:25;;;;;;;8.38;2.42;;;;;;;11.16;74.81;99454.75;5075570;28;20525;-87
2023/10/15 09:50:59;;;;;;;14.50;2.40;;;;;;;11.12;74.62;99445.41;5075443;28;20032;-87
2023/10/15 09:53:27;;;;;;;7.55;2.70;;;;;;;11.17;74.40;99450.41;5075112;28;20123;-87
2023/10/15 09:55:54;;;;;;;6.40;2.13;;;;;;;11.31;75.16;99454.91;5075479;28;20035;-86
2023/10/15 09:58:19;;;;;;;7.65;2.30;;;;;;;11.41;75.31;99443.88;5075283;28;20035;-86
2023/10/15 10:03:47;;;;;;;10.30;2.67;;;;;;;11.73;74.86;99454.38;5093356;28;20066;-86
2023/10/15 10:06:31;;;;;;;8.43;2.30;;;;;;;11.85;73.65;99451.13;5075233;28;20131;-86
2023/10/15 10:09:16;;;;;;;9.02;2.28;;;;;;;12.07;73.59;99457.75;5075118;28;20059;-86
2023/10/15 10:11:51;;;;;;;5.53;2.45;;;;;;;12.19;72.76;99449.25;5092748;28;20052;-87
2023/10/15 10:14:53;;;;;;;9.63;2.80;;;;;;;12.20;72.42;99432.63;5074945;28;20034;-86
2023/10/15 10:17:23;;;;;;;7.93;2.28;;;;;;;12.38;71.11;99449.03;5074797;28;20036;-87
2023/10/15 10:19:52;;;;;;;6.78;2.03;;;;;;;12.41;70.58;99448.84;5073533;28;20051;-87
2023/10/15 10:22:26;;;;;;;7.82;2.28;;;;;;;12.47;70.27;99440.66;5074596;28;20046;-86
2023/10/15 10:24:53;;;;;;;5.93;2.30;;;;;;;12.34;70.18;99418.78;5092485;28;20035;-87
2023/10/15 10:27:19;;;;;;;7.75;2.17;;;;;;;12.54;70.12;99428.09;5074497;28;20103;-87
2023/10/15 10:29:52;;;;;;;6.53;2.38;;;;;;;12.66;69.77;99433.44;5074326;28;20110;-87
2023/10/15 10:32:19;;;;;;;8.05;1.92;;;;;;;12.68;69.48;99430.72;5074414;28;20024;-87
2023/10/15 10:34:45;;;;;;;6.47;3.00;;;;;;;12.64;69.33;99421.38;5092235;28;20024;-87
2023/10/15 10:37:21;;;;;;;5.63;2.33;;;;;;;12.68;70.35;99412.44;5073847;28;20118;-88
2023/10/15 10:39:49;;;;;;;5.03;2.28;;;;;;;12.78;69.20;99421.44;5074047;28;20016;-88
2023/10/15 10:42:26;;;;;;;7.10;2.25;;;;;;;12.67;68.41;99423.81;5074220;28;20486;-88
2023/10/15 10:44:56;;;;;;;7.78;2.40;;;;;;;12.45;68.74;99400.75;5073927;28;20119;-87
2023/10/15 10:47:30;;;;;;;4.85;2.08;;;;;;;12.35;69.04;99405.66;5074089;28;20027;-87
2023/10/15 10:50:00;;;;;;;8.60;3.03;;;;;;;12.34;69.39;99422.25;5074037;28;20066;-87
2023/10/15 10:52:35;;;;;;;6.63;2.63;;;;;;;12.06;69.43;99381.22;5074071;28;20020;-87
2023/10/15 10:55:30;;;;;;;5.65;2.58;;;;;;;12.23;69.78;99415.03;5073744;28;20028;-87
2023/10/15 10:57:56;;;;;;;9.35;2.80;;;;;;;12.10;69.69;99406.22;5073737;28;20112;-87
2023/10/15 11:00:21;;;;;;;6.03;2.92;;;;;;;12.21;70.45;99414.25;5073939;28;20467;-87
2023/10/15 11:02:48;;;;;;;7.60;2.38;;;;;;;12.26;70.78;99400.94;5073771;28;20052;-88
2023/10/15 11:05:14;;;;;;;6.72;1.92;;;;;;;12.25;70.63;99388.81;5074037;28;20028;-87
2023/10/15 11:07:40;;;;;;;5.75;1.92;;;;;;;12.33;71.12;99377.94;5091719;28;20056;-88
2023/10/15 11:10:06;;;;;;;6.03;2.33;;;;;;;12.45;71.41;99404.19;5073545;28;20141;-88
2023/10/15 11:12:32;;;;;;;6.03;2.00;;;;;;;12.16;70.41;99361.47;5073425;28;20118;-87
2023/10/15 11:14:58;;;;;;;7.18;2.08;;;;;;;12.11;70.46;99381.78;5073571;28;20077;-87
2023/10/15 11:17:23;;;;;;;7.63;2.05;;;;;;;12.10;71.42;99397.56;5073625;28;20027;-87
2023/10/15 11:19:49;;;;;;;7.03;2.42;;;;;;;12.05;71.05;99397.81;5073565;28;20028;-88
2023/10/15 11:22:15;;;;;;;5.85;2.40;;;;;;;11.84;71.14;99344.19;5073636;28;20024;-87
2023/10/15 11:24:40;;;;;;;6.75;2.63;;;;;;;12.35;71.31;99397.00;5073079;28;20028;-87
2023/10/15 11:27:11;;;;;;;9.20;2.38;;;;;;;12.46;70.05;99402.41;5073116;28;20068;-87
2023/10/15 11:29:37;;;;;;;7.97;2.40;;;;;;;12.38;69.21;99373.28;5073441;28;20028;-87
2023/10/15 11:32:06;;;;;;;6.30;2.42;;;;;;;12.35;68.46;99403.06;5071737;28;20047;-87
2023/10/15 11:34:33;;;;;;;7.30;2.47;;;;;;;12.43;69.49;99398.22;5087387;28;20027;-87
2023/10/15 11:37:01;;;;;;;5.80;2.17;;;;;;;12.42;69.81;99380.00;5093466;28;20034;-87
2023/10/15 11:39:29;;;;;;;6.68;2.50;;;;;;;11.91;69.93;99329.88;5111720;28;20032;-87
2023/10/15 11:41:56;;;;;;;9.75;4.35;;;;;;;12.13;70.77;99392.97;5093386;28;20115;-88
2023/10/15 11:44:31;;;;;;;6.10;2.97;;;;;;;12.08;70.78;99394.16;5093729;28;20088;-87
2023/10/15 11:46:59;;;;;;;12.10;3.75;;;;;;;11.94;71.88;99394.97;5093403;28;20019;-87
2023/10/15 11:49:25;;;;;;;9.20;3.40;;;;;;;11.90;72.42;99376.03;5093593;28;20494;-87
2023/10/15 11:51:57;;;;;;;6.43;3.10;;;;;;;11.95;72.77;99384.44;5093636;28;20095;-87
2023/10/15 11:54:32;;;;;;;7.43;2.72;;;;;;;11.96;72.93;99391.31;5093701;28;20467;-87
2023/10/15 11:57:05;;;;;;;6.80;2.55;;;;;;;11.96;72.83;99393.94;5094604;28;20023;-86
2023/10/15 11:59:31;;;;;;;6.57;2.45;;;;;;;11.99;73.25;99401.59;5112102;28;20023;-86
2023/10/15 12:02:00;;;;;;;5.15;2.50;;;;;;;11.94;73.70;99374.09;5093845;28;20027;-86
2023/10/15 12:04:26;;;;;;;8.60;2.13;;;;;;;12.06;74.17;99381.22;5093825;28;20058;-87